sensor_id;sensor_type;location;lat;lon;timestamp;P1;durP1;ratioP1;P2;durP2;ratioP2
38843;SDS011;24596;48.080;8.362;2022-08-25T00:01:33;9.15;;;5.68;;
38843;SDS011;24596;48.080;8.362;2022-08-25T00:03:59;9.77;;;6.72;;
38843;SDS011;24596;48.080;8.362;2022-08-25T00:06:25;7.88;;;5.43;;
38843;SDS011;24596;48.080;8.362;2022-08-25T00:08:50;9.02;;;5.72;;
38843;SDS011;24596;48.080;8.362;2022-08-25T00:11:17;8.93;;;5.80;;
38843;SDS011;24596;48.080;8.362;2022-08-25T00:13:44;9.50;;;5.82;;
38843;SDS011;24596;48.080;8.362;2022-08-25T00:16:10;8.75;;;5.80;;
38843;SDS011;24596;48.080;8.362;2022-08-25T00:18:36;8.73;;;5.75;;
38843;SDS011;24596;48.080;8.362;2022-08-25T00:21:01;14.95;;;6.55;;
38843;SDS011;24596;48.080;8.362;2022-08-25T00:23:27;9.73;;;5.20;;
38843;SDS011;24596;48.080;8.362;2022-08-25T00:25:52;10.23;;;5.63;;
38843;SDS011;24596;48.080;8.362;2022-08-25T00:28:18;10.73;;;5.40;;
38843;SDS011;24596;48.080;8.362;2022-08-25T00:30:43;7.55;;;5.50;;
38843;SDS011;24596;48.080;8.362;2022-08-25T00:33:09;8.63;;;5.55;;
38843;SDS011;24596;48.080;8.362;2022-08-25T00:35:34;9.40;;;5.45;;
38843;SDS011;24596;48.080;8.362;2022-08-25T00:37:59;11.85;;;6.30;;
38843;SDS011;24596;48.080;8.362;2022-08-25T00:40:25;8.68;;;5.95;;
38843;SDS011;24596;48.080;8.362;2022-08-25T00:42:50;8.57;;;5.43;;
38843;SDS011;24596;48.080;8.362;2022-08-25T00:45:15;12.13;;;6.00;;
38843;SDS011;24596;48.080;8.362;2022-08-25T00:47:42;8.13;;;5.28;;
38843;SDS011;24596;48.080;8.362;2022-08-25T00:50:08;9.35;;;6.00;;
38843;SDS011;24596;48.080;8.362;2022-08-25T00:52:38;11.48;;;5.97;;
38843;SDS011;24596;48.080;8.362;2022-08-25T00:57:33;10.55;;;6.32;;
38843;SDS011;24596;48.080;8.362;2022-08-25T01:00:03;9.30;;;5.72;;
38843;SDS011;24596;48.080;8.362;2022-08-25T01:02:29;10.93;;;5.90;;
38843;SDS011;24596;48.080;8.362;2022-08-25T01:04:54;8.75;;;6.00;;
38843;SDS011;24596;48.080;8.362;2022-08-25T01:07:19;9.48;;;5.75;;
38843;SDS011;24596;48.080;8.362;2022-08-25T01:09:46;8.40;;;5.70;;
38843;SDS011;24596;48.080;8.362;2022-08-25T01:12:15;10.23;;;5.93;;
38843;SDS011;24596;48.080;8.362;2022-08-25T01:14:43;8.55;;;6.07;;
38843;SDS011;24596;48.080;8.362;2022-08-25T01:17:10;9.38;;;5.75;;
38843;SDS011;24596;48.080;8.362;2022-08-25T01:19:35;9.10;;;5.68;;
38843;SDS011;24596;48.080;8.362;2022-08-25T01:22:01;9.35;;;5.45;;
38843;SDS011;24596;48.080;8.362;2022-08-25T01:26:55;9.05;;;6.00;;
38843;SDS011;24596;48.080;8.362;2022-08-25T01:29:20;7.68;;;5.15;;
38843;SDS011;24596;48.080;8.362;2022-08-25T01:31:47;10.13;;;5.35;;
38843;SDS011;24596;48.080;8.362;2022-08-25T01:34:12;8.55;;;5.30;;
38843;SDS011;24596;48.080;8.362;2022-08-25T01:36:39;7.68;;;5.25;;
38843;SDS011;24596;48.080;8.362;2022-08-25T01:39:04;7.90;;;5.47;;
38843;SDS011;24596;48.080;8.362;2022-08-25T01:41:34;8.75;;;5.63;;
38843;SDS011;24596;48.080;8.362;2022-08-25T01:44:01;9.93;;;6.05;;
38843;SDS011;24596;48.080;8.362;2022-08-25T01:46:27;10.25;;;5.80;;
38843;SDS011;24596;48.080;8.362;2022-08-25T01:48:52;8.48;;;5.25;;
38843;SDS011;24596;48.080;8.362;2022-08-25T01:51:23;8.65;;;5.45;;
38843;SDS011;24596;48.080;8.362;2022-08-25T01:53:48;9.60;;;5.77;;
38843;SDS011;24596;48.080;8.362;2022-08-25T01:56:15;10.18;;;5.88;;
38843;SDS011;24596;48.080;8.362;2022-08-25T01:58:42;10.38;;;6.13;;
38843;SDS011;24596;48.080;8.362;2022-08-25T02:01:09;10.82;;;5.78;;
38843;SDS011;24596;48.080;8.362;2022-08-25T02:03:38;8.38;;;5.35;;
38843;SDS011;24596;48.080;8.362;2022-08-25T02:06:04;8.23;;;5.38;;
38843;SDS011;24596;48.080;8.362;2022-08-25T02:08:30;8.57;;;5.88;;
38843;SDS011;24596;48.080;8.362;2022-08-25T02:10:55;11.48;;;6.22;;
38843;SDS011;24596;48.080;8.362;2022-08-25T02:13:21;9.50;;;5.88;;
38843;SDS011;24596;48.080;8.362;2022-08-25T02:15:47;7.90;;;5.22;;
38843;SDS011;24596;48.080;8.362;2022-08-25T02:18:13;9.00;;;5.53;;
38843;SDS011;24596;48.080;8.362;2022-08-25T02:20:39;11.50;;;6.35;;
38843;SDS011;24596;48.080;8.362;2022-08-25T02:23:05;10.25;;;5.78;;
38843;SDS011;24596;48.080;8.362;2022-08-25T02:25:30;10.77;;;5.40;;
38843;SDS011;24596;48.080;8.362;2022-08-25T02:27:56;10.20;;;5.85;;
38843;SDS011;24596;48.080;8.362;2022-08-25T02:30:22;8.98;;;5.63;;
38843;SDS011;24596;48.080;8.362;2022-08-25T02:32:48;8.48;;;5.30;;
38843;SDS011;24596;48.080;8.362;2022-08-25T02:35:13;8.52;;;5.43;;
38843;SDS011;24596;48.080;8.362;2022-08-25T02:37:38;9.20;;;5.72;;
38843;SDS011;24596;48.080;8.362;2022-08-25T02:40:04;8.70;;;5.45;;
38843;SDS011;24596;48.080;8.362;2022-08-25T02:42:29;9.57;;;5.35;;
38843;SDS011;24596;48.080;8.362;2022-08-25T02:44:54;8.60;;;5.05;;
38843;SDS011;24596;48.080;8.362;2022-08-25T02:47:20;9.70;;;5.47;;
38843;SDS011;24596;48.080;8.362;2022-08-25T02:49:46;9.45;;;5.68;;
38843;SDS011;24596;48.080;8.362;2022-08-25T02:52:12;7.32;;;4.93;;
38843;SDS011;24596;48.080;8.362;2022-08-25T02:54:37;12.35;;;5.80;;
38843;SDS011;24596;48.080;8.362;2022-08-25T02:57:02;8.25;;;4.78;;
38843;SDS011;24596;48.080;8.362;2022-08-25T02:59:28;9.82;;;5.60;;
38843;SDS011;24596;48.080;8.362;2022-08-25T03:01:53;7.95;;;5.38;;
38843;SDS011;24596;48.080;8.362;2022-08-25T03:04:18;9.88;;;5.45;;
38843;SDS011;24596;48.080;8.362;2022-08-25T03:06:44;8.70;;;4.72;;
38843;SDS011;24596;48.080;8.362;2022-08-25T03:09:09;9.75;;;5.15;;
38843;SDS011;24596;48.080;8.362;2022-08-25T03:11:34;7.63;;;4.95;;
38843;SDS011;24596;48.080;8.362;2022-08-25T03:14:02;8.38;;;4.82;;
38843;SDS011;24596;48.080;8.362;2022-08-25T03:16:27;9.40;;;5.25;;
38843;SDS011;24596;48.080;8.362;2022-08-25T03:18:52;8.63;;;5.05;;
38843;SDS011;24596;48.080;8.362;2022-08-25T03:21:18;7.40;;;4.65;;
38843;SDS011;24596;48.080;8.362;2022-08-25T03:23:45;9.60;;;4.93;;
38843;SDS011;24596;48.080;8.362;2022-08-25T03:26:10;8.98;;;4.57;;
38843;SDS011;24596;48.080;8.362;2022-08-25T03:28:54;7.82;;;4.65;;
38843;SDS011;24596;48.080;8.362;2022-08-25T03:31:21;8.50;;;5.90;;
38843;SDS011;24596;48.080;8.362;2022-08-25T03:33:46;8.35;;;5.25;;
38843;SDS011;24596;48.080;8.362;2022-08-25T03:36:11;9.77;;;6.40;;
38843;SDS011;24596;48.080;8.362;2022-08-25T03:38:36;8.05;;;5.13;;
38843;SDS011;24596;48.080;8.362;2022-08-25T03:41:09;8.23;;;4.70;;
38843;SDS011;24596;48.080;8.362;2022-08-25T03:43:35;11.70;;;5.70;;
38843;SDS011;24596;48.080;8.362;2022-08-25T03:46:00;8.10;;;5.03;;
38843;SDS011;24596;48.080;8.362;2022-08-25T03:48:25;7.97;;;4.47;;
38843;SDS011;24596;48.080;8.362;2022-08-25T03:50:50;7.38;;;4.53;;
38843;SDS011;24596;48.080;8.362;2022-08-25T03:53:15;8.20;;;4.10;;
38843;SDS011;24596;48.080;8.362;2022-08-25T03:55:41;10.80;;;4.53;;
38843;SDS011;24596;48.080;8.362;2022-08-25T03:58:06;7.60;;;4.35;;
38843;SDS011;24596;48.080;8.362;2022-08-25T04:00:33;7.80;;;4.82;;
38843;SDS011;24596;48.080;8.362;2022-08-25T04:02:58;10.23;;;5.00;;
38843;SDS011;24596;48.080;8.362;2022-08-25T04:05:24;7.78;;;4.88;;
38843;SDS011;24596;48.080;8.362;2022-08-25T04:07:49;7.93;;;4.90;;
38843;SDS011;24596;48.080;8.362;2022-08-25T04:10:14;7.45;;;4.60;;
38843;SDS011;24596;48.080;8.362;2022-08-25T04:12:39;9.90;;;5.00;;
38843;SDS011;24596;48.080;8.362;2022-08-25T04:15:06;8.68;;;5.15;;
38843;SDS011;24596;48.080;8.362;2022-08-25T04:17:32;7.18;;;4.65;;
38843;SDS011;24596;48.080;8.362;2022-08-25T04:19:57;6.75;;;4.35;;
38843;SDS011;24596;48.080;8.362;2022-08-25T04:22:23;7.70;;;5.00;;
38843;SDS011;24596;48.080;8.362;2022-08-25T04:24:48;8.68;;;5.55;;
38843;SDS011;24596;48.080;8.362;2022-08-25T04:27:13;18.17;;;11.23;;
38843;SDS011;24596;48.080;8.362;2022-08-25T04:29:39;17.88;;;10.85;;
38843;SDS011;24596;48.080;8.362;2022-08-25T04:32:04;12.38;;;8.32;;
38843;SDS011;24596;48.080;8.362;2022-08-25T04:34:29;11.45;;;6.93;;
38843;SDS011;24596;48.080;8.362;2022-08-25T04:36:55;9.90;;;6.00;;
38843;SDS011;24596;48.080;8.362;2022-08-25T04:39:20;10.30;;;6.15;;
38843;SDS011;24596;48.080;8.362;2022-08-25T04:41:46;9.30;;;5.38;;
38843;SDS011;24596;48.080;8.362;2022-08-25T04:44:12;8.35;;;4.68;;
38843;SDS011;24596;48.080;8.362;2022-08-25T04:46:37;13.15;;;5.93;;
38843;SDS011;24596;48.080;8.362;2022-08-25T04:49:02;7.60;;;4.68;;
38843;SDS011;24596;48.080;8.362;2022-08-25T04:51:29;8.98;;;4.97;;
38843;SDS011;24596;48.080;8.362;2022-08-25T04:53:57;9.32;;;4.72;;
38843;SDS011;24596;48.080;8.362;2022-08-25T04:56:22;7.97;;;4.65;;
38843;SDS011;24596;48.080;8.362;2022-08-25T04:58:51;10.40;;;4.45;;
38843;SDS011;24596;48.080;8.362;2022-08-25T05:01:17;9.35;;;4.88;;
38843;SDS011;24596;48.080;8.362;2022-08-25T05:03:43;8.43;;;4.88;;
38843;SDS011;24596;48.080;8.362;2022-08-25T05:06:09;9.30;;;5.07;;
38843;SDS011;24596;48.080;8.362;2022-08-25T05:08:34;18.15;;;9.32;;
38843;SDS011;24596;48.080;8.362;2022-08-25T05:11:06;17.27;;;9.20;;
38843;SDS011;24596;48.080;8.362;2022-08-25T05:13:31;13.02;;;7.80;;
38843;SDS011;24596;48.080;8.362;2022-08-25T05:15:57;12.32;;;8.10;;
38843;SDS011;24596;48.080;8.362;2022-08-25T05:18:24;14.85;;;8.05;;
38843;SDS011;24596;48.080;8.362;2022-08-25T05:20:50;12.90;;;7.90;;
38843;SDS011;24596;48.080;8.362;2022-08-25T05:23:16;12.38;;;7.82;;
38843;SDS011;24596;48.080;8.362;2022-08-25T05:25:41;11.48;;;6.65;;
38843;SDS011;24596;48.080;8.362;2022-08-25T05:28:08;9.73;;;6.07;;
38843;SDS011;24596;48.080;8.362;2022-08-25T05:30:35;9.40;;;6.13;;
38843;SDS011;24596;48.080;8.362;2022-08-25T05:33:01;9.75;;;6.03;;
38843;SDS011;24596;48.080;8.362;2022-08-25T05:35:28;10.48;;;5.47;;
38843;SDS011;24596;48.080;8.362;2022-08-25T05:37:53;8.55;;;5.50;;
38843;SDS011;24596;48.080;8.362;2022-08-25T05:40:21;10.40;;;4.95;;
38843;SDS011;24596;48.080;8.362;2022-08-25T05:42:46;10.93;;;5.57;;
38843;SDS011;24596;48.080;8.362;2022-08-25T05:45:11;9.48;;;5.43;;
38843;SDS011;24596;48.080;8.362;2022-08-25T05:47:38;11.55;;;5.80;;
38843;SDS011;24596;48.080;8.362;2022-08-25T05:50:03;10.15;;;5.55;;
38843;SDS011;24596;48.080;8.362;2022-08-25T05:52:28;8.10;;;5.22;;
38843;SDS011;24596;48.080;8.362;2022-08-25T05:54:53;7.93;;;5.25;;
38843;SDS011;24596;48.080;8.362;2022-08-25T05:57:19;7.97;;;4.68;;
38843;SDS011;24596;48.080;8.362;2022-08-25T05:59:44;8.38;;;5.35;;
38843;SDS011;24596;48.080;8.362;2022-08-25T06:02:09;7.55;;;5.00;;
38843;SDS011;24596;48.080;8.362;2022-08-25T06:04:53;7.60;;;4.90;;
38843;SDS011;24596;48.080;8.362;2022-08-25T06:07:18;7.85;;;5.18;;
38843;SDS011;24596;48.080;8.362;2022-08-25T06:09:44;8.80;;;5.25;;
38843;SDS011;24596;48.080;8.362;2022-08-25T06:12:12;8.70;;;5.43;;
38843;SDS011;24596;48.080;8.362;2022-08-25T06:14:38;10.68;;;5.97;;
38843;SDS011;24596;48.080;8.362;2022-08-25T06:17:03;8.32;;;5.30;;
38843;SDS011;24596;48.080;8.362;2022-08-25T06:19:29;7.78;;;5.07;;
38843;SDS011;24596;48.080;8.362;2022-08-25T06:21:55;8.45;;;5.05;;
38843;SDS011;24596;48.080;8.362;2022-08-25T06:24:21;8.52;;;5.28;;
38843;SDS011;24596;48.080;8.362;2022-08-25T06:26:46;7.70;;;4.95;;
38843;SDS011;24596;48.080;8.362;2022-08-25T06:29:12;7.43;;;4.82;;
38843;SDS011;24596;48.080;8.362;2022-08-25T06:31:40;7.78;;;4.78;;
38843;SDS011;24596;48.080;8.362;2022-08-25T06:34:06;11.07;;;5.38;;
38843;SDS011;24596;48.080;8.362;2022-08-25T06:36:31;8.23;;;5.53;;
38843;SDS011;24596;48.080;8.362;2022-08-25T06:38:57;10.18;;;6.32;;
38843;SDS011;24596;48.080;8.362;2022-08-25T06:41:22;11.98;;;6.75;;
38843;SDS011;24596;48.080;8.362;2022-08-25T06:43:47;10.23;;;5.60;;
38843;SDS011;24596;48.080;8.362;2022-08-25T06:46:17;11.45;;;6.00;;
38843;SDS011;24596;48.080;8.362;2022-08-25T06:48:42;10.68;;;5.68;;
38843;SDS011;24596;48.080;8.362;2022-08-25T06:51:09;10.23;;;5.72;;
38843;SDS011;24596;48.080;8.362;2022-08-25T06:56:35;8.30;;;4.82;;
38843;SDS011;24596;48.080;8.362;2022-08-25T06:59:00;8.13;;;4.72;;
38843;SDS011;24596;48.080;8.362;2022-08-25T07:01:26;9.07;;;5.40;;
38843;SDS011;24596;48.080;8.362;2022-08-25T07:03:54;8.00;;;4.97;;
38843;SDS011;24596;48.080;8.362;2022-08-25T07:06:24;8.57;;;5.45;;
38843;SDS011;24596;48.080;8.362;2022-08-25T07:08:49;7.60;;;4.70;;
38843;SDS011;24596;48.080;8.362;2022-08-25T07:11:15;7.47;;;5.13;;
38843;SDS011;24596;48.080;8.362;2022-08-25T07:13:40;9.90;;;4.40;;
38843;SDS011;24596;48.080;8.362;2022-08-25T07:16:05;7.10;;;4.50;;
38843;SDS011;24596;48.080;8.362;2022-08-25T07:18:31;6.60;;;3.97;;
38843;SDS011;24596;48.080;8.362;2022-08-25T07:20:56;7.30;;;4.38;;
38843;SDS011;24596;48.080;8.362;2022-08-25T07:23:22;6.95;;;3.90;;
38843;SDS011;24596;48.080;8.362;2022-08-25T07:25:48;8.25;;;4.75;;
38843;SDS011;24596;48.080;8.362;2022-08-25T07:28:13;9.57;;;3.85;;
38843;SDS011;24596;48.080;8.362;2022-08-25T07:30:39;7.00;;;3.72;;
38843;SDS011;24596;48.080;8.362;2022-08-25T07:33:04;7.00;;;3.45;;
38843;SDS011;24596;48.080;8.362;2022-08-25T07:35:29;6.00;;;4.13;;
38843;SDS011;24596;48.080;8.362;2022-08-25T07:37:56;7.93;;;4.10;;
38843;SDS011;24596;48.080;8.362;2022-08-25T07:40:26;7.47;;;4.00;;
38843;SDS011;24596;48.080;8.362;2022-08-25T07:42:53;6.97;;;3.85;;
38843;SDS011;24596;48.080;8.362;2022-08-25T07:45:19;5.88;;;3.50;;
38843;SDS011;24596;48.080;8.362;2022-08-25T07:47:45;8.23;;;3.50;;
38843;SDS011;24596;48.080;8.362;2022-08-25T07:50:10;6.25;;;3.70;;
38843;SDS011;24596;48.080;8.362;2022-08-25T07:52:36;6.50;;;3.33;;
38843;SDS011;24596;48.080;8.362;2022-08-25T07:55:02;6.35;;;3.60;;
38843;SDS011;24596;48.080;8.362;2022-08-25T08:03:33;6.03;;;3.38;;
38843;SDS011;24596;48.080;8.362;2022-08-25T08:05:59;7.20;;;3.55;;
38843;SDS011;24596;48.080;8.362;2022-08-25T08:08:25;7.55;;;4.00;;
38843;SDS011;24596;48.080;8.362;2022-08-25T08:10:50;7.43;;;3.78;;
38843;SDS011;24596;48.080;8.362;2022-08-25T08:13:16;6.15;;;3.78;;
38843;SDS011;24596;48.080;8.362;2022-08-25T08:15:42;7.53;;;4.28;;
38843;SDS011;24596;48.080;8.362;2022-08-25T08:18:07;6.43;;;3.72;;
38843;SDS011;24596;48.080;8.362;2022-08-25T08:20:33;5.97;;;3.20;;
38843;SDS011;24596;48.080;8.362;2022-08-25T08:22:58;9.20;;;3.65;;
38843;SDS011;24596;48.080;8.362;2022-08-25T08:25:24;6.10;;;3.40;;
38843;SDS011;24596;48.080;8.362;2022-08-25T08:27:49;6.35;;;3.53;;
38843;SDS011;24596;48.080;8.362;2022-08-25T08:30:14;6.80;;;3.67;;
38843;SDS011;24596;48.080;8.362;2022-08-25T08:32:40;5.85;;;3.03;;
38843;SDS011;24596;48.080;8.362;2022-08-25T08:35:05;7.50;;;3.37;;
38843;SDS011;24596;48.080;8.362;2022-08-25T08:37:30;8.05;;;3.47;;
38843;SDS011;24596;48.080;8.362;2022-08-25T08:39:56;8.50;;;3.57;;
38843;SDS011;24596;48.080;8.362;2022-08-25T08:44:55;5.97;;;3.63;;
38843;SDS011;24596;48.080;8.362;2022-08-25T08:52:16;4.73;;;3.00;;
38843;SDS011;24596;48.080;8.362;2022-08-25T08:54:43;5.38;;;3.20;;
38843;SDS011;24596;48.080;8.362;2022-08-25T08:57:13;7.25;;;3.70;;
38843;SDS011;24596;48.080;8.362;2022-08-25T08:59:47;6.22;;;3.83;;
38843;SDS011;24596;48.080;8.362;2022-08-25T09:02:25;5.25;;;2.90;;
38843;SDS011;24596;48.080;8.362;2022-08-25T09:05:03;5.30;;;3.30;;
38843;SDS011;24596;48.080;8.362;2022-08-25T09:07:30;5.95;;;2.85;;
38843;SDS011;24596;48.080;8.362;2022-08-25T09:09:56;5.85;;;3.00;;
38843;SDS011;24596;48.080;8.362;2022-08-25T09:17:19;5.80;;;3.20;;
38843;SDS011;24596;48.080;8.362;2022-08-25T09:22:41;5.28;;;3.03;;
38843;SDS011;24596;48.080;8.362;2022-08-25T09:27:40;5.82;;;2.78;;
38843;SDS011;24596;48.080;8.362;2022-08-25T09:30:18;5.47;;;2.88;;
38843;SDS011;24596;48.080;8.362;2022-08-25T09:32:45;5.03;;;3.13;;
38843;SDS011;24596;48.080;8.362;2022-08-25T09:35:13;5.30;;;3.10;;
38843;SDS011;24596;48.080;8.362;2022-08-25T09:37:41;5.75;;;3.05;;
38843;SDS011;24596;48.080;8.362;2022-08-25T09:40:07;6.18;;;3.15;;
38843;SDS011;24596;48.080;8.362;2022-08-25T09:42:46;7.88;;;2.95;;
38843;SDS011;24596;48.080;8.362;2022-08-25T09:45:12;6.57;;;3.10;;
38843;SDS011;24596;48.080;8.362;2022-08-25T09:47:42;4.53;;;2.50;;
38843;SDS011;24596;48.080;8.362;2022-08-25T09:50:11;5.05;;;2.55;;
38843;SDS011;24596;48.080;8.362;2022-08-25T09:52:39;4.45;;;2.30;;
38843;SDS011;24596;48.080;8.362;2022-08-25T09:57:31;6.70;;;2.40;;
38843;SDS011;24596;48.080;8.362;2022-08-25T09:59:58;5.13;;;2.65;;
38843;SDS011;24596;48.080;8.362;2022-08-25T10:02:33;4.15;;;2.38;;
38843;SDS011;24596;48.080;8.362;2022-08-25T10:04:58;4.63;;;2.33;;
38843;SDS011;24596;48.080;8.362;2022-08-25T10:07:28;4.15;;;2.10;;
38843;SDS011;24596;48.080;8.362;2022-08-25T10:09:58;4.55;;;2.10;;
38843;SDS011;24596;48.080;8.362;2022-08-25T10:12:28;5.10;;;2.50;;
38843;SDS011;24596;48.080;8.362;2022-08-25T10:14:54;5.63;;;2.50;;
38843;SDS011;24596;48.080;8.362;2022-08-25T10:17:24;3.85;;;1.98;;
38843;SDS011;24596;48.080;8.362;2022-08-25T10:19:54;6.53;;;2.40;;
38843;SDS011;24596;48.080;8.362;2022-08-25T10:22:36;4.53;;;2.53;;
38843;SDS011;24596;48.080;8.362;2022-08-25T10:25:03;4.60;;;2.50;;
38843;SDS011;24596;48.080;8.362;2022-08-25T10:35:12;4.93;;;2.67;;
38843;SDS011;24596;48.080;8.362;2022-08-25T10:40:31;5.35;;;2.42;;
38843;SDS011;24596;48.080;8.362;2022-08-25T10:45:29;4.73;;;1.87;;
38843;SDS011;24596;48.080;8.362;2022-08-25T10:49:07;4.95;;;2.17;;
38843;SDS011;24596;48.080;8.362;2022-08-25T10:51:21;3.58;;;1.90;;
38843;SDS011;24596;48.080;8.362;2022-08-25T10:56:25;4.60;;;2.00;;
38843;SDS011;24596;48.080;8.362;2022-08-25T11:04:05;3.83;;;2.10;;
38843;SDS011;24596;48.080;8.362;2022-08-25T11:09:01;8.07;;;2.75;;
38843;SDS011;24596;48.080;8.362;2022-08-25T11:14:10;3.95;;;2.08;;
38843;SDS011;24596;48.080;8.362;2022-08-25T11:26:52;4.82;;;2.35;;
38843;SDS011;24596;48.080;8.362;2022-08-25T11:29:20;3.67;;;2.13;;
38843;SDS011;24596;48.080;8.362;2022-08-25T11:31:47;4.03;;;1.90;;
38843;SDS011;24596;48.080;8.362;2022-08-25T11:34:13;4.25;;;2.10;;
38843;SDS011;24596;48.080;8.362;2022-08-25T11:36:40;4.05;;;2.13;;
38843;SDS011;24596;48.080;8.362;2022-08-25T11:41:59;4.47;;;2.10;;
38843;SDS011;24596;48.080;8.362;2022-08-25T11:47:04;3.65;;;2.10;;
38843;SDS011;24596;48.080;8.362;2022-08-25T11:49:39;4.63;;;2.15;;
38843;SDS011;24596;48.080;8.362;2022-08-25T11:52:37;3.78;;;2.20;;
38843;SDS011;24596;48.080;8.362;2022-08-25T11:54:53;4.60;;;2.08;;
38843;SDS011;24596;48.080;8.362;2022-08-25T11:57:20;3.80;;;2.27;;
38843;SDS011;24596;48.080;8.362;2022-08-25T12:05:00;4.47;;;1.95;;
38843;SDS011;24596;48.080;8.362;2022-08-25T12:07:56;4.10;;;1.98;;
38843;SDS011;24596;48.080;8.362;2022-08-25T12:16:01;4.15;;;1.92;;
38843;SDS011;24596;48.080;8.362;2022-08-25T12:26:03;4.93;;;2.25;;
38843;SDS011;24596;48.080;8.362;2022-08-25T12:28:55;4.28;;;2.03;;
38843;SDS011;24596;48.080;8.362;2022-08-25T12:31:20;5.70;;;2.00;;
38843;SDS011;24596;48.080;8.362;2022-08-25T12:36:29;2.90;;;1.77;;
38843;SDS011;24596;48.080;8.362;2022-08-25T12:39:07;4.53;;;2.03;;
38843;SDS011;24596;48.080;8.362;2022-08-25T12:41:32;5.60;;;2.30;;
38843;SDS011;24596;48.080;8.362;2022-08-25T12:44:09;5.85;;;2.30;;
38843;SDS011;24596;48.080;8.362;2022-08-25T12:46:41;3.60;;;1.95;;
38843;SDS011;24596;48.080;8.362;2022-08-25T12:49:14;3.95;;;1.85;;
38843;SDS011;24596;48.080;8.362;2022-08-25T12:51:53;3.92;;;2.00;;
38843;SDS011;24596;48.080;8.362;2022-08-25T12:56:52;4.53;;;1.80;;
38843;SDS011;24596;48.080;8.362;2022-08-25T12:59:23;3.53;;;2.17;;
38843;SDS011;24596;48.080;8.362;2022-08-25T13:07:36;3.35;;;1.77;;
38843;SDS011;24596;48.080;8.362;2022-08-25T13:10:14;3.70;;;2.08;;
38843;SDS011;24596;48.080;8.362;2022-08-25T13:12:46;3.25;;;1.83;;
38843;SDS011;24596;48.080;8.362;2022-08-25T13:17:38;3.17;;;1.87;;
38843;SDS011;24596;48.080;8.362;2022-08-25T13:20:14;4.07;;;2.20;;
38843;SDS011;24596;48.080;8.362;2022-08-25T13:22:40;4.57;;;2.17;;
38843;SDS011;24596;48.080;8.362;2022-08-25T13:25:13;3.92;;;2.10;;
38843;SDS011;24596;48.080;8.362;2022-08-25T13:27:39;4.57;;;2.30;;
38843;SDS011;24596;48.080;8.362;2022-08-25T13:30:04;3.90;;;2.20;;
38843;SDS011;24596;48.080;8.362;2022-08-25T13:32:31;7.47;;;2.13;;
38843;SDS011;24596;48.080;8.362;2022-08-25T13:35:10;5.28;;;2.15;;
38843;SDS011;24596;48.080;8.362;2022-08-25T13:37:36;5.75;;;2.67;;
38843;SDS011;24596;48.080;8.362;2022-08-25T13:42:33;4.85;;;2.22;;
38843;SDS011;24596;48.080;8.362;2022-08-25T13:45:00;5.65;;;2.10;;
38843;SDS011;24596;48.080;8.362;2022-08-25T13:47:34;4.85;;;2.05;;
38843;SDS011;24596;48.080;8.362;2022-08-25T13:50:28;5.05;;;2.10;;
38843;SDS011;24596;48.080;8.362;2022-08-25T13:55:35;3.90;;;2.17;;
38843;SDS011;24596;48.080;8.362;2022-08-25T14:00:33;5.57;;;2.03;;
38843;SDS011;24596;48.080;8.362;2022-08-25T14:03:01;4.82;;;2.97;;
38843;SDS011;24596;48.080;8.362;2022-08-25T14:05:29;8.40;;;2.72;;
38843;SDS011;24596;48.080;8.362;2022-08-25T14:07:56;3.92;;;2.25;;
38843;SDS011;24596;48.080;8.362;2022-08-25T14:10:35;3.78;;;2.20;;
38843;SDS011;24596;48.080;8.362;2022-08-25T14:13:08;3.50;;;2.05;;
38843;SDS011;24596;48.080;8.362;2022-08-25T14:15:33;4.47;;;2.15;;
38843;SDS011;24596;48.080;8.362;2022-08-25T14:20:25;8.75;;;2.20;;
38843;SDS011;24596;48.080;8.362;2022-08-25T14:22:56;5.03;;;2.08;;
38843;SDS011;24596;48.080;8.362;2022-08-25T14:25:22;5.90;;;2.05;;
38843;SDS011;24596;48.080;8.362;2022-08-25T14:28:10;4.15;;;1.95;;
38843;SDS011;24596;48.080;8.362;2022-08-25T14:30:34;3.80;;;1.90;;
38843;SDS011;24596;48.080;8.362;2022-08-25T14:33:00;5.40;;;2.10;;
38843;SDS011;24596;48.080;8.362;2022-08-25T14:35:26;4.35;;;2.10;;
38843;SDS011;24596;48.080;8.362;2022-08-25T14:37:53;5.10;;;2.33;;
38843;SDS011;24596;48.080;8.362;2022-08-25T14:40:18;6.73;;;2.20;;
38843;SDS011;24596;48.080;8.362;2022-08-25T14:42:47;5.25;;;2.58;;
38843;SDS011;24596;48.080;8.362;2022-08-25T14:45:16;4.30;;;2.20;;
38843;SDS011;24596;48.080;8.362;2022-08-25T14:47:41;6.30;;;2.60;;
38843;SDS011;24596;48.080;8.362;2022-08-25T14:50:08;4.57;;;2.15;;
38843;SDS011;24596;48.080;8.362;2022-08-25T14:52:34;5.55;;;2.08;;
38843;SDS011;24596;48.080;8.362;2022-08-25T14:54:59;3.85;;;2.00;;
38843;SDS011;24596;48.080;8.362;2022-08-25T14:57:25;5.13;;;2.05;;
38843;SDS011;24596;48.080;8.362;2022-08-25T14:59:50;3.88;;;1.90;;
38843;SDS011;24596;48.080;8.362;2022-08-25T15:02:16;3.97;;;2.05;;
38843;SDS011;24596;48.080;8.362;2022-08-25T15:05:06;3.47;;;1.85;;
38843;SDS011;24596;48.080;8.362;2022-08-25T15:07:32;4.45;;;1.88;;
38843;SDS011;24596;48.080;8.362;2022-08-25T15:10:17;4.03;;;2.17;;
38843;SDS011;24596;48.080;8.362;2022-08-25T15:12:43;3.13;;;1.70;;
38843;SDS011;24596;48.080;8.362;2022-08-25T15:15:08;6.15;;;2.10;;
38843;SDS011;24596;48.080;8.362;2022-08-25T15:17:34;3.67;;;1.98;;
38843;SDS011;24596;48.080;8.362;2022-08-25T15:19:59;4.70;;;2.00;;
38843;SDS011;24596;48.080;8.362;2022-08-25T15:22:25;4.45;;;1.88;;
38843;SDS011;24596;48.080;8.362;2022-08-25T15:24:50;6.68;;;2.22;;
38843;SDS011;24596;48.080;8.362;2022-08-25T15:27:17;4.28;;;1.90;;
38843;SDS011;24596;48.080;8.362;2022-08-25T15:29:43;4.78;;;2.35;;
38843;SDS011;24596;48.080;8.362;2022-08-25T15:32:08;4.57;;;2.40;;
38843;SDS011;24596;48.080;8.362;2022-08-25T15:34:34;4.38;;;2.13;;
38843;SDS011;24596;48.080;8.362;2022-08-25T15:37:05;4.60;;;2.20;;
38843;SDS011;24596;48.080;8.362;2022-08-25T15:39:31;3.92;;;2.17;;
38843;SDS011;24596;48.080;8.362;2022-08-25T15:41:56;3.65;;;1.92;;
38843;SDS011;24596;48.080;8.362;2022-08-25T15:44:22;5.15;;;2.20;;
38843;SDS011;24596;48.080;8.362;2022-08-25T15:46:47;3.95;;;2.30;;
38843;SDS011;24596;48.080;8.362;2022-08-25T15:49:13;4.53;;;2.08;;
38843;SDS011;24596;48.080;8.362;2022-08-25T15:51:38;6.35;;;2.53;;
38843;SDS011;24596;48.080;8.362;2022-08-25T15:54:04;29.70;;;5.85;;
38843;SDS011;24596;48.080;8.362;2022-08-25T15:56:29;4.88;;;2.33;;
38843;SDS011;24596;48.080;8.362;2022-08-25T15:58:55;9.13;;;2.63;;
38843;SDS011;24596;48.080;8.362;2022-08-25T16:01:22;5.05;;;2.42;;
38843;SDS011;24596;48.080;8.362;2022-08-25T16:03:47;4.43;;;2.30;;
38843;SDS011;24596;48.080;8.362;2022-08-25T16:06:13;4.95;;;2.55;;
38843;SDS011;24596;48.080;8.362;2022-08-25T16:08:38;5.82;;;2.10;;
38843;SDS011;24596;48.080;8.362;2022-08-25T16:11:04;5.43;;;2.50;;
38843;SDS011;24596;48.080;8.362;2022-08-25T16:13:30;4.97;;;2.65;;
38843;SDS011;24596;48.080;8.362;2022-08-25T16:15:55;4.47;;;2.33;;
38843;SDS011;24596;48.080;8.362;2022-08-25T16:18:21;7.00;;;2.47;;
38843;SDS011;24596;48.080;8.362;2022-08-25T16:20:46;4.78;;;2.47;;
38843;SDS011;24596;48.080;8.362;2022-08-25T16:23:12;4.35;;;2.33;;
38843;SDS011;24596;48.080;8.362;2022-08-25T16:25:39;4.78;;;2.42;;
38843;SDS011;24596;48.080;8.362;2022-08-25T16:28:04;5.03;;;2.63;;
38843;SDS011;24596;48.080;8.362;2022-08-25T16:30:29;4.70;;;2.42;;
38843;SDS011;24596;48.080;8.362;2022-08-25T16:32:55;7.25;;;2.85;;
38843;SDS011;24596;48.080;8.362;2022-08-25T16:35:20;5.97;;;3.08;;
38843;SDS011;24596;48.080;8.362;2022-08-25T16:37:46;8.48;;;4.10;;
38843;SDS011;24596;48.080;8.362;2022-08-25T16:40:11;6.40;;;3.30;;
38843;SDS011;24596;48.080;8.362;2022-08-25T16:42:37;7.35;;;3.50;;
38843;SDS011;24596;48.080;8.362;2022-08-25T16:45:03;7.22;;;3.35;;